Flight Number: EUR2348 Duration: 1:10
Departure: Krakow Balice (EPKK) at 21:30 Distance: 330 Nm
Arrival: Munich Int'l (EDDM) at 22:40 Equipment: CRJ700

Weather Information
Krakow, Poland (EPKK) 50-05N 019-48E 237M Oct 19, 2018 - 02:30 PM EDT / 2018.10.19 1830 UTC
Wind: from the WSW (240 degrees) at 5 MPH (4 KT):0
Visibility: 1 mile(s):0
Sky conditions: overcast Weather: mist Temperature: 51 F (11 C) Dew Point: 48 F (9 C) Relative Humidity: 87% Pressure (altimeter): 30.24 in. Hg (1024 hPa)
ob: EPKK 191830Z 24004KT 3000 BR OVC008 11/09 Q1024 cycle: 18
Sunrise: 05:13 Sunset: 15:37 (UTC)

Munchen, Germany (EDDM) 48-21N 011-47E Oct 19, 2018 - 02:20 PM EDT / 2018.10.19 1820 UTC
Wind: Variable at 2 MPH (2 KT):0
Visibility: 5 mile(s):0 Temperature: 46 F (8 C) Dew Point: 44 F (7 C) Relative Humidity: 93% Pressure (altimeter): 30.21 in. Hg (1023 hPa)
ob: EDDM 191820Z VRB02KT 9000 NSC 08/07 Q1023 NOSIG cycle: 18
Sunrise: 05:42 Sunset: 16:12 (UTC)

TAF:2018/10/19 18:44 TAF EDDM 191700Z 1918/2024 VRB02KT 8000 NSC BECMG 1921/1924 2000 BCFG PROB30 TEMPO 2001/2009 0700 FG BECMG 2009/2011 7000 BKN013 BECMG 2011/2013 34006KT SCT013 BECMG 2016/2018 VRB03KT PROB30 TEMPO 2022/2024 3000 BCFG

Previous Pireps for this route
Date Aircraft Flight time Fuel used Landing rate On time
2015-02-27CRJ70001.146164-163Yes
2015-04-05CRJ70001.176513-121Yes
2016-11-13CRJ7001.1234120Yes
(pireps marked green are flown by you)

Route map